createdAt,value
2023-02-15T00:02:02.041Z,24.47
2023-02-15T00:04:47.020Z,26.47
2023-02-15T00:07:16.741Z,26.20
2023-02-15T00:09:43.889Z,27.47
2023-02-15T00:12:11.261Z,26.43
2023-02-15T00:14:38.154Z,25.93
2023-02-15T00:17:05.174Z,27.13
2023-02-15T00:19:32.074Z,24.30
2023-02-15T00:21:58.933Z,27.07
2023-02-15T00:24:26.014Z,26.37
2023-02-15T00:26:52.885Z,27.83
2023-02-15T00:29:20.790Z,25.07
2023-02-15T00:31:47.984Z,24.73
2023-02-15T00:34:24.824Z,23.80
2023-02-15T00:36:51.819Z,25.97
2023-02-15T00:39:19.376Z,26.37
2023-02-15T00:41:47.523Z,27.30
2023-02-15T00:44:15.066Z,24.90
2023-02-15T00:46:42.104Z,25.50
2023-02-15T00:49:10.654Z,25.17
2023-02-15T00:51:38.657Z,25.00
2023-02-15T00:54:05.799Z,23.63
2023-02-15T00:56:32.673Z,26.50
2023-02-15T00:58:59.638Z,27.30
2023-02-15T01:01:26.867Z,25.17
2023-02-15T01:03:54.020Z,25.40
2023-02-15T01:06:21.197Z,26.57
2023-02-15T01:08:48.565Z,25.73
2023-02-15T01:11:22.981Z,26.70
2023-02-15T01:13:54.400Z,25.20
2023-02-15T01:16:22.184Z,26.80
2023-02-15T01:18:49.512Z,24.70
2023-02-15T01:21:22.293Z,25.50
2023-02-15T01:23:49.459Z,25.30
2023-02-15T01:26:17.219Z,25.27
2023-02-15T01:28:45.855Z,26.80
2023-02-15T01:31:17.958Z,25.97
2023-02-15T01:33:47.474Z,26.67
2023-02-15T01:36:15.291Z,25.27
2023-02-15T01:38:42.633Z,29.27
2023-02-15T01:41:23.838Z,26.83
2023-02-15T01:44:01.016Z,26.73
2023-02-15T01:46:40.050Z,27.80
2023-02-15T01:49:17.994Z,28.23
2023-02-15T01:51:47.442Z,25.87
2023-02-15T01:54:27.097Z,27.53
2023-02-15T01:56:56.227Z,25.00
2023-02-15T01:59:25.578Z,25.73
2023-02-15T02:01:59.225Z,25.90
2023-02-15T02:04:36.777Z,27.83
2023-02-15T02:07:05.436Z,25.40
2023-02-15T02:09:33.279Z,26.90
2023-02-15T02:12:00.865Z,25.97
2023-02-15T02:14:27.922Z,27.60
2023-02-15T02:17:29.174Z,27.50
2023-02-15T02:20:31.818Z,26.93
2023-02-15T02:23:29.079Z,30.50
2023-02-15T02:26:17.529Z,30.07
2023-02-15T02:29:28.590Z,27.57
2023-02-15T02:32:29.720Z,27.47
2023-02-15T02:35:20.242Z,26.87
2023-02-15T02:37:59.490Z,26.20
2023-02-15T02:40:55.321Z,25.80
2023-02-15T02:43:36.665Z,26.07
2023-02-15T02:46:08.158Z,26.60
2023-02-15T02:48:35.860Z,26.40
2023-02-15T02:51:02.803Z,25.07
2023-02-15T02:53:32.383Z,24.23
2023-02-15T02:56:22.522Z,27.57
2023-02-15T02:59:11.010Z,26.93
2023-02-15T03:02:16.069Z,26.10
2023-02-15T03:04:49.169Z,28.13
2023-02-15T03:07:23.674Z,25.80
2023-02-15T03:09:53.667Z,27.10
2023-02-15T03:12:30.920Z,28.60
2023-02-15T03:15:16.438Z,24.97
2023-02-15T03:17:47.093Z,26.60
2023-02-15T03:20:30.623Z,26.37
2023-02-15T03:23:07.668Z,26.57
2023-02-15T03:25:41.325Z,26.97
2023-02-15T03:28:13.553Z,27.63
2023-02-15T03:30:43.516Z,28.37
2023-02-15T03:33:12.155Z,27.83
2023-02-15T03:35:54.268Z,28.57
2023-02-15T03:38:35.797Z,28.00
2023-02-15T03:41:12.970Z,26.77
2023-02-15T03:43:46.343Z,26.67
2023-02-15T03:46:24.574Z,28.07
2023-02-15T03:49:08.506Z,25.90
2023-02-15T03:51:39.575Z,24.83
2023-02-15T03:54:37.962Z,27.70
2023-02-15T03:57:31.614Z,27.10
2023-02-15T04:00:25.044Z,28.50
2023-02-15T04:03:16.395Z,27.80
2023-02-15T04:05:45.117Z,27.20
2023-02-15T04:08:13.516Z,26.80
2023-02-15T04:10:58.967Z,27.87
2023-02-15T04:13:33.766Z,27.17
2023-02-15T04:16:07.790Z,28.97
2023-02-15T04:19:02.970Z,28.67
2023-02-15T04:21:49.842Z,26.50
2023-02-15T04:24:35.961Z,27.50
2023-02-15T04:27:04.388Z,27.27
2023-02-15T04:29:31.867Z,27.13
2023-02-15T04:32:01.869Z,28.77
2023-02-15T04:34:28.850Z,26.83
2023-02-15T04:36:55.743Z,28.27
2023-02-15T04:39:22.627Z,27.40
2023-02-15T04:41:49.493Z,26.57
2023-02-15T04:44:16.649Z,27.33
2023-02-15T04:46:43.551Z,29.50
2023-02-15T04:49:10.711Z,33.43
2023-02-15T04:51:37.722Z,29.90
2023-02-15T04:54:04.737Z,31.53
2023-02-15T04:56:32.196Z,32.90
2023-02-15T04:58:59.092Z,30.53
2023-02-15T05:01:26.050Z,31.47
2023-02-15T05:03:53.058Z,30.80
2023-02-15T05:06:19.985Z,29.30
2023-02-15T05:08:46.917Z,30.83
2023-02-15T05:11:13.814Z,28.27
2023-02-15T05:13:41.439Z,30.00
2023-02-15T05:16:08.608Z,26.90
2023-02-15T05:18:35.506Z,31.50
2023-02-15T05:21:02.417Z,28.23
2023-02-15T05:23:29.288Z,32.20
2023-02-15T05:26:14.512Z,28.73
2023-02-15T05:28:41.380Z,30.90
2023-02-15T05:31:35.232Z,28.73
2023-02-15T05:34:02.345Z,31.27
2023-02-15T05:36:29.843Z,27.90
2023-02-15T05:38:57.126Z,29.30
2023-02-15T05:41:23.993Z,27.47
2023-02-15T05:43:50.876Z,29.03
2023-02-15T05:46:17.800Z,30.40
2023-02-15T05:48:44.730Z,29.53
2023-02-15T05:51:14.948Z,30.50
2023-02-15T05:53:42.035Z,33.73
2023-02-15T05:56:11.506Z,30.20
2023-02-15T05:58:41.443Z,27.70
2023-02-15T06:01:18.134Z,31.03
2023-02-15T06:03:46.565Z,29.60
2023-02-15T06:06:13.693Z,30.53
2023-02-15T06:08:40.645Z,30.10
2023-02-15T06:11:07.863Z,31.60
2023-02-15T06:13:38.407Z,31.40
2023-02-15T06:16:07.230Z,31.93
2023-02-15T06:18:34.568Z,32.50
2023-02-15T06:21:01.438Z,32.20
2023-02-15T06:23:28.311Z,32.03
2023-02-15T06:25:55.209Z,32.50
2023-02-15T06:28:22.094Z,31.33
2023-02-15T06:30:48.983Z,33.27
2023-02-15T06:33:15.904Z,34.30
2023-02-15T06:35:42.803Z,34.53
2023-02-15T06:38:09.755Z,30.50
2023-02-15T06:40:36.639Z,33.47
2023-02-15T06:43:03.526Z,31.60
2023-02-15T06:45:30.413Z,32.70
2023-02-15T06:47:57.303Z,33.50
2023-02-15T06:50:24.207Z,33.20
2023-02-15T06:52:56.580Z,33.27
2023-02-15T06:55:23.423Z,34.13
2023-02-15T06:57:51.125Z,34.20
2023-02-15T07:00:19.250Z,34.10
2023-02-15T07:02:46.197Z,38.60
2023-02-15T07:05:13.169Z,35.90
2023-02-15T07:07:40.163Z,34.13
2023-02-15T07:10:07.621Z,34.00
2023-02-15T07:12:43.501Z,34.60
2023-02-15T07:15:16.156Z,33.73
2023-02-15T07:17:44.143Z,30.80
2023-02-15T07:20:21.108Z,34.20
2023-02-15T07:22:48.623Z,33.57
2023-02-15T07:25:15.813Z,34.13
2023-02-15T07:27:42.895Z,32.00
2023-02-15T07:30:13.751Z,33.50
2023-02-15T07:33:01.142Z,31.13
2023-02-15T07:35:29.193Z,34.60
2023-02-15T07:37:56.125Z,33.07
2023-02-15T07:40:24.434Z,32.13
2023-02-15T07:42:55.806Z,37.00
2023-02-15T07:45:23.344Z,34.70
2023-02-15T07:47:50.228Z,36.27
2023-02-15T07:50:17.190Z,35.07
2023-02-15T07:52:44.058Z,35.57
2023-02-15T07:55:13.664Z,35.50
2023-02-15T07:57:48.302Z,35.23
2023-02-15T08:00:18.129Z,36.47
2023-02-15T08:03:13.272Z,36.40
2023-02-15T08:05:42.298Z,36.57
2023-02-15T08:08:30.245Z,35.97
2023-02-15T08:11:31.899Z,37.20
2023-02-15T08:14:04.694Z,35.77
2023-02-15T08:16:46.057Z,36.07
2023-02-15T08:19:22.723Z,39.70
2023-02-15T08:21:53.164Z,36.30
2023-02-15T08:24:22.847Z,38.03
2023-02-15T08:26:50.936Z,37.13
2023-02-15T08:29:23.374Z,36.23
2023-02-15T08:31:55.635Z,38.23
2023-02-15T08:34:22.610Z,36.90
2023-02-15T08:36:49.522Z,38.33
2023-02-15T08:39:16.707Z,40.00
2023-02-15T08:41:46.809Z,39.80
2023-02-15T08:44:16.138Z,42.70
2023-02-15T08:46:45.695Z,39.60
2023-02-15T08:49:18.918Z,38.07
2023-02-15T08:51:46.494Z,41.80
2023-02-15T08:54:16.909Z,40.97
2023-02-15T08:56:45.338Z,36.87
2023-02-15T08:59:21.492Z,37.90
2023-02-15T09:01:51.054Z,38.13
2023-02-15T09:04:18.584Z,36.67
2023-02-15T09:06:49.171Z,36.20
2023-02-15T09:09:17.942Z,35.20
2023-02-15T09:11:47.607Z,38.07
2023-02-15T09:14:25.428Z,36.43
2023-02-15T09:16:54.177Z,39.87
2023-02-15T09:19:23.398Z,37.80
2023-02-15T09:21:50.287Z,38.00
2023-02-15T09:24:18.262Z,33.77
2023-02-15T09:26:48.594Z,36.30
2023-02-15T09:29:16.709Z,37.17
2023-02-15T09:31:47.178Z,35.33
2023-02-15T09:34:19.127Z,37.10
2023-02-15T09:36:46.554Z,39.27
2023-02-15T09:39:16.294Z,37.20
2023-02-15T09:41:52.902Z,38.03
2023-02-15T09:44:53.342Z,39.33
2023-02-15T09:47:50.294Z,38.37
2023-02-15T09:51:13.118Z,38.63
2023-02-15T09:54:22.414Z,39.83
2023-02-15T09:56:58.210Z,38.13
2023-02-15T09:59:42.386Z,40.00
2023-02-15T10:02:47.311Z,42.43
2023-02-15T10:05:40.482Z,40.27
2023-02-15T10:08:18.991Z,40.67
2023-02-15T10:11:33.267Z,38.30
2023-02-15T10:14:18.804Z,40.30
2023-02-15T10:17:26.868Z,40.53
2023-02-15T10:20:15.717Z,40.43
2023-02-15T10:23:13.318Z,38.97
2023-02-15T10:26:32.522Z,37.57
2023-02-15T10:29:17.120Z,38.90
2023-02-15T10:32:13.004Z,36.43
2023-02-15T10:34:47.573Z,34.60
2023-02-15T10:37:31.253Z,36.80
2023-02-15T10:40:23.157Z,37.50
2023-02-15T10:43:05.286Z,36.90
2023-02-15T10:46:16.782Z,37.27
2023-02-15T10:49:08.255Z,45.43
2023-02-15T10:52:09.569Z,39.00
2023-02-15T10:55:04.664Z,42.67
2023-02-15T10:57:54.014Z,41.30
2023-02-15T11:00:43.108Z,40.57
2023-02-15T11:03:35.652Z,42.27
2023-02-15T11:06:14.890Z,41.77
2023-02-15T11:08:46.460Z,42.20
2023-02-15T11:11:43.352Z,40.77
2023-02-15T11:14:21.671Z,39.07
2023-02-15T11:16:56.230Z,38.83
2023-02-15T11:19:55.223Z,41.50
2023-02-15T11:22:22.894Z,39.93
2023-02-15T11:24:50.407Z,41.97
2023-02-15T11:27:25.515Z,38.77
2023-02-15T11:30:14.592Z,40.93
2023-02-15T11:32:45.742Z,36.23
2023-02-15T11:35:15.098Z,42.67
2023-02-15T11:37:55.057Z,43.00
2023-02-15T11:40:35.270Z,42.80
2023-02-15T11:43:13.992Z,42.80
2023-02-15T11:45:47.324Z,41.00
2023-02-15T11:48:16.207Z,41.03
2023-02-15T11:50:44.588Z,40.40
2023-02-15T11:53:25.785Z,40.77
2023-02-15T11:55:52.974Z,41.23
2023-02-15T11:58:29.440Z,40.27
2023-02-15T12:01:40.864Z,40.33
2023-02-15T12:04:22.821Z,40.33
2023-02-15T12:07:26.504Z,43.20
2023-02-15T12:10:26.475Z,43.93
2023-02-15T12:13:17.815Z,42.00
2023-02-15T12:15:51.760Z,42.40
2023-02-15T12:18:46.609Z,39.97
2023-02-15T12:21:34.104Z,41.47
2023-02-15T12:24:22.883Z,43.80
2023-02-15T12:26:59.635Z,42.10
2023-02-15T12:29:32.152Z,39.03
2023-02-15T12:32:00.097Z,37.80
2023-02-15T12:34:33.211Z,43.47
2023-02-15T12:37:22.766Z,42.67
2023-02-15T12:39:59.208Z,43.07
2023-02-15T12:42:30.056Z,46.63
2023-02-15T12:45:31.741Z,44.83
2023-02-15T12:48:18.057Z,46.57
2023-02-15T12:50:55.415Z,40.63
2023-02-15T12:53:34.644Z,42.10
2023-02-15T12:56:05.097Z,42.57
2023-02-15T12:58:35.097Z,42.97
2023-02-15T13:01:10.444Z,40.90
2023-02-15T13:03:51.927Z,42.77
2023-02-15T13:06:19.581Z,38.77
2023-02-15T13:08:52.905Z,38.53
2023-02-15T13:11:32.718Z,44.10
2023-02-15T13:14:16.187Z,44.70
2023-02-15T13:16:46.099Z,45.00
2023-02-15T13:19:38.186Z,42.50
2023-02-15T13:22:14.082Z,42.27
2023-02-15T13:24:49.571Z,39.97
2023-02-15T13:27:23.230Z,40.20
2023-02-15T13:29:54.740Z,41.97
2023-02-15T13:32:38.020Z,39.30
2023-02-15T13:35:08.094Z,40.07
2023-02-15T13:38:07.404Z,37.13
2023-02-15T13:40:39.176Z,36.43
2023-02-15T13:43:43.753Z,36.53
2023-02-15T13:46:28.849Z,38.90
2023-02-15T13:49:19.865Z,35.57
2023-02-15T13:52:22.943Z,35.13
2023-02-15T13:55:28.244Z,33.40
2023-02-15T13:58:35.566Z,33.27
2023-02-15T14:01:35.487Z,34.30
2023-02-15T14:04:46.605Z,33.00
2023-02-15T14:07:54.652Z,32.20
2023-02-15T14:10:45.839Z,31.60
2023-02-15T14:13:48.259Z,30.73
2023-02-15T14:16:34.978Z,26.73
2023-02-15T14:19:37.696Z,28.50
2023-02-15T14:22:36.348Z,26.83
2023-02-15T14:25:29.551Z,27.50
2023-02-15T14:28:42.174Z,28.00
2023-02-15T14:31:13.126Z,28.97
2023-02-15T14:33:48.614Z,29.10
2023-02-15T14:36:20.546Z,28.90
2023-02-15T14:39:42.610Z,28.77
2023-02-15T14:42:15.698Z,27.60
2023-02-15T14:45:02.631Z,30.77
2023-02-15T14:47:38.270Z,24.20
2023-02-15T14:50:34.816Z,27.37
2023-02-15T14:53:32.033Z,29.27
2023-02-15T14:56:21.014Z,29.10
2023-02-15T14:58:50.821Z,27.93
2023-02-15T15:01:34.931Z,26.87
2023-02-15T15:04:09.697Z,28.23
2023-02-15T15:06:43.492Z,26.80
2023-02-15T15:09:21.663Z,29.60
2023-02-15T15:11:51.880Z,29.47
2023-02-15T15:14:33.997Z,29.50
2023-02-15T15:17:04.749Z,29.73
2023-02-15T15:19:54.834Z,28.93
2023-02-15T15:22:28.092Z,27.40
2023-02-15T15:25:01.135Z,32.00
2023-02-15T15:27:54.377Z,33.00
2023-02-15T15:30:24.368Z,32.50
2023-02-15T15:32:57.784Z,31.63
2023-02-15T15:35:47.684Z,31.50
2023-02-15T15:39:03.683Z,33.60
2023-02-15T15:41:46.851Z,34.20
2023-02-15T15:45:04.674Z,30.63
2023-02-15T15:47:43.743Z,34.60
2023-02-15T15:50:21.370Z,34.70
2023-02-15T15:52:58.212Z,34.63
2023-02-15T15:55:28.927Z,35.60
2023-02-15T15:58:06.096Z,33.40
2023-02-15T16:00:43.413Z,30.30
2023-02-15T16:03:25.687Z,32.47
2023-02-15T16:05:56.487Z,32.87
2023-02-15T16:08:40.829Z,32.03
2023-02-15T16:11:30.308Z,34.37
2023-02-15T16:13:57.398Z,31.37
2023-02-15T16:16:29.689Z,32.07
2023-02-15T16:19:00.695Z,30.93
2023-02-15T16:21:35.737Z,32.33
2023-02-15T16:24:54.673Z,31.57
2023-02-15T16:27:45.202Z,33.57
2023-02-15T16:30:23.258Z,31.63
2023-02-15T16:32:53.901Z,29.60
2023-02-15T16:35:22.162Z,32.10
2023-02-15T16:37:49.116Z,32.83
2023-02-15T16:40:24.694Z,36.03
2023-02-15T16:42:54.868Z,33.00
2023-02-15T16:45:25.426Z,35.93
2023-02-15T16:47:57.398Z,33.67
2023-02-15T16:50:31.782Z,33.10
2023-02-15T16:52:58.937Z,34.33
2023-02-15T16:55:29.564Z,31.27
2023-02-15T16:58:02.558Z,29.97
2023-02-15T17:00:35.076Z,28.37
2023-02-15T17:03:23.169Z,33.17
2023-02-15T17:05:57.678Z,30.30
2023-02-15T17:08:34.866Z,31.90
2023-02-15T17:11:21.327Z,30.43
2023-02-15T17:14:09.703Z,33.40
2023-02-15T17:16:50.192Z,34.07
2023-02-15T17:19:27.408Z,31.20
2023-02-15T17:22:04.850Z,30.37
2023-02-15T17:24:31.565Z,31.03
2023-02-15T17:27:02.721Z,30.83
2023-02-15T17:29:41.300Z,28.03
2023-02-15T17:32:24.952Z,33.63
2023-02-15T17:35:09.545Z,33.07
2023-02-15T17:37:39.390Z,33.27
2023-02-15T17:40:35.415Z,31.30
2023-02-15T17:43:02.410Z,31.87
2023-02-15T17:45:41.485Z,36.33
2023-02-15T17:48:21.255Z,33.47
2023-02-15T17:50:48.602Z,32.80
2023-02-15T17:53:18.843Z,36.37
2023-02-15T17:55:46.461Z,34.00
2023-02-15T17:58:16.923Z,32.13
2023-02-15T18:01:09.986Z,34.07
2023-02-15T18:04:08.619Z,31.80
2023-02-15T18:06:59.061Z,35.83
2023-02-15T18:09:44.954Z,41.23
2023-02-15T18:12:27.882Z,36.30
2023-02-15T18:14:56.832Z,43.67
2023-02-15T18:17:35.257Z,43.80
2023-02-15T18:20:18.370Z,39.40
2023-02-15T18:22:46.502Z,34.43
2023-02-15T18:25:15.691Z,36.03
2023-02-15T18:27:43.131Z,33.30
2023-02-15T18:30:20.314Z,37.13
2023-02-15T18:32:51.390Z,37.20
2023-02-15T18:35:22.132Z,41.27
2023-02-15T18:37:50.469Z,38.13
2023-02-15T18:40:20.468Z,35.63
2023-02-15T18:42:48.934Z,37.57
2023-02-15T18:45:28.290Z,36.83
2023-02-15T18:47:55.261Z,35.10
2023-02-15T18:50:23.843Z,35.60
2023-02-15T18:52:51.553Z,34.93
2023-02-15T18:55:25.024Z,33.30
2023-02-15T18:57:54.372Z,31.30
2023-02-15T19:00:30.395Z,32.13
2023-02-15T19:02:57.916Z,31.80
2023-02-15T19:05:29.507Z,32.50
2023-02-15T19:07:58.943Z,32.20
2023-02-15T19:10:28.761Z,33.00
2023-02-15T19:12:56.285Z,35.17
2023-02-15T19:15:27.100Z,34.40
2023-02-15T19:17:54.777Z,30.80
2023-02-15T19:20:30.046Z,32.97
2023-02-15T19:22:58.410Z,31.20
2023-02-15T19:25:29.206Z,32.70
2023-02-15T19:27:56.535Z,39.63
2023-02-15T19:30:31.988Z,33.67
2023-02-15T19:32:59.854Z,36.17
2023-02-15T19:35:32.139Z,35.17
2023-02-15T19:38:04.049Z,34.40
2023-02-15T19:40:34.652Z,36.60
2023-02-15T19:43:02.751Z,34.60
2023-02-15T19:45:31.639Z,34.63
2023-02-15T19:48:01.841Z,37.37
2023-02-15T19:50:33.380Z,35.37
2023-02-15T19:53:01.990Z,32.03
2023-02-15T19:55:34.926Z,36.20
2023-02-15T19:58:03.088Z,34.60
2023-02-15T20:00:34.193Z,32.93
2023-02-15T20:03:01.373Z,35.77
2023-02-15T20:05:30.603Z,34.00
2023-02-15T20:07:58.366Z,33.00
2023-02-15T20:10:29.544Z,35.37
2023-02-15T20:12:57.016Z,31.57
2023-02-15T20:15:28.158Z,34.90
2023-02-15T20:17:57.210Z,33.20
2023-02-15T20:20:31.013Z,32.47
2023-02-15T20:22:57.949Z,33.43
2023-02-15T20:25:29.206Z,32.33
2023-02-15T20:27:59.190Z,32.90
2023-02-15T20:30:30.633Z,30.87
2023-02-15T20:32:57.774Z,31.17
2023-02-15T20:35:28.549Z,30.47
2023-02-15T20:37:59.583Z,31.30
2023-02-15T20:40:30.935Z,30.70
2023-02-15T20:42:57.891Z,31.03
2023-02-15T20:45:28.704Z,28.97
2023-02-15T20:47:56.179Z,28.77
2023-02-15T20:50:27.256Z,27.27
2023-02-15T20:52:56.432Z,26.77
2023-02-15T20:55:27.317Z,28.30
2023-02-15T20:57:54.255Z,30.53
2023-02-15T21:00:24.923Z,26.50
2023-02-15T21:02:56.548Z,25.10
2023-02-15T21:05:26.815Z,27.20
2023-02-15T21:07:54.566Z,26.37
2023-02-15T21:10:29.360Z,24.57
2023-02-15T21:12:59.874Z,26.07
2023-02-15T21:15:39.824Z,25.47
2023-02-15T21:18:15.367Z,24.27
2023-02-15T21:20:48.276Z,24.87
2023-02-15T21:23:18.792Z,23.60
2023-02-15T21:25:46.299Z,26.57
2023-02-15T21:28:27.514Z,26.20
2023-02-15T21:30:59.617Z,29.27
2023-02-15T21:33:27.264Z,25.80
2023-02-15T21:35:56.874Z,25.63
2023-02-15T21:38:29.444Z,23.70
2023-02-15T21:41:16.272Z,25.10
2023-02-15T21:44:18.462Z,27.27
2023-02-15T21:47:04.118Z,26.90
2023-02-15T21:49:31.011Z,26.03
2023-02-15T21:52:13.083Z,24.97
2023-02-15T21:54:45.048Z,26.40
2023-02-15T21:57:16.936Z,24.73
2023-02-15T21:59:44.554Z,22.57
2023-02-15T22:02:28.553Z,27.00
2023-02-15T22:04:56.533Z,25.60
2023-02-15T22:07:23.437Z,24.20
2023-02-15T22:09:50.299Z,26.17
2023-02-15T22:12:19.195Z,26.20
2023-02-15T22:14:53.312Z,24.23
2023-02-15T22:17:24.957Z,25.17
2023-02-15T22:19:52.659Z,25.93
2023-02-15T22:22:19.591Z,26.27
2023-02-15T22:24:46.831Z,24.43
2023-02-15T22:27:22.159Z,25.40
2023-02-15T22:29:50.171Z,25.30
2023-02-15T22:32:23.532Z,24.07
2023-02-15T22:34:51.411Z,24.83
2023-02-15T22:37:18.362Z,22.90
2023-02-15T22:39:45.251Z,24.60
2023-02-15T22:42:26.186Z,24.73
2023-02-15T22:44:55.617Z,26.27
2023-02-15T22:47:26.041Z,24.63
2023-02-15T22:49:54.452Z,22.50
2023-02-15T22:52:21.653Z,25.33
2023-02-15T22:54:48.526Z,24.60
2023-02-15T22:57:24.849Z,23.70
2023-02-15T22:59:51.735Z,24.93
2023-02-15T23:02:18.646Z,24.20
2023-02-15T23:04:45.557Z,27.10
2023-02-15T23:07:18.993Z,24.33
2023-02-15T23:09:46.582Z,26.63
2023-02-15T23:12:27.335Z,23.80
2023-02-15T23:14:54.790Z,28.03
2023-02-15T23:17:22.088Z,24.07
2023-02-15T23:19:49.022Z,24.27
2023-02-15T23:22:18.166Z,24.77
2023-02-15T23:24:51.931Z,23.20
2023-02-15T23:27:38.131Z,24.03
2023-02-15T23:30:10.561Z,22.70
2023-02-15T23:32:37.480Z,22.07
2023-02-15T23:35:15.482Z,22.90
2023-02-15T23:37:42.368Z,21.60
2023-02-15T23:40:37.125Z,20.73
2023-02-15T23:43:04.284Z,21.57
2023-02-15T23:45:38.233Z,20.03
2023-02-15T23:48:29.914Z,19.97
2023-02-15T23:50:57.746Z,20.03
2023-02-15T23:53:24.654Z,22.47
2023-02-15T23:55:51.580Z,20.73
2023-02-15T23:58:23.425Z,19.67
